Terminal Aerodrome Forecast
Issued by NWS

Home | Current Version | Previous Version | Text Only | Print | Product List | Glossary On
Versions: 1 2 3 4 5 6 7 8 9 10 11 12 13 14 15 16 17
056
FTUS45 KTFX 080520
TAFBZN
TAF
KBZN 080520Z 0806/0906 VRB06KT P6SM OVC050
     FM081000 15005KT P6SM SCT070
     FM082100 VRB05KT P6SM SCT040 OVC060
     FM090300 VRB05KT 5SM -SN OVC030=

USA.gov is the U.S. government's official web portal to all federal, state and local government web resources and services.